Terminal Aerodrome Forecast
Issued by NWS

Home | Current Version | Previous Version | Text Only | Print | Product List | Glossary On
Versions: 1 2 3 4 5 6 7 8 9 10 11 12 13 14 15 16 17 18
957
FTUS43 KJKL 291127
TAFSME
TAF
KSME 291127Z 2912/3012 VRB03KT P6SM SCT010 BKN020
     FM291500 08005KT P6SM SCT020
     FM300300 08004KT P6SM SCT100=

USA.gov is the U.S. government's official web portal to all federal, state and local government web resources and services.